Time;durP1;ratioP1;P1;durP2;ratioP2;P2;SDS_P1;SDS_P2;PMS_P1;PMS_P2;Temp;Humidity;BMP_temperature;BMP_pressure;BME280_temperature;BME280_humidity;BME280_pressure;Samples;Min_cycle;Max_cycle;Signal;HPM_P1;HPM_P2
2022/07/16 00:01:52;;;;;;;5.70;4.63;;;;;;;10.82;100.00;93555.47;2122941;27;20147;-80
2022/07/16 00:02:53;;;;;;;6.50;4.78;;;;;;;10.77;100.00;93553.25;2109245;28;20498;-79
2022/07/16 00:03:59;;;;;;;8.93;5.28;;;;;;;10.77;100.00;93558.59;2113982;28;20157;-80
2022/07/16 00:05:01;;;;;;;7.70;5.22;;;;;;;10.84;100.00;93559.25;2115251;27;20499;-80
2022/07/16 00:06:02;;;;;;;7.22;4.97;;;;;;;10.67;100.00;93557.63;2108758;27;20070;-80
2022/07/16 00:07:03;;;;;;;8.80;4.88;;;;;;;10.50;100.00;93562.06;2105429;28;20024;-80
2022/07/16 00:08:04;;;;;;;6.70;5.20;;;;;;;10.52;100.00;93558.97;2096406;28;20031;-80
2022/07/16 00:09:05;;;;;;;10.48;4.80;;;;;;;10.65;100.00;93562.59;2103294;28;21049;-80
2022/07/16 00:10:07;;;;;;;8.95;5.40;;;;;;;10.65;100.00;93559.91;2105911;28;20029;-80
2022/07/16 00:11:08;;;;;;;6.80;4.82;;;;;;;10.58;100.00;93557.38;2106191;28;20110;-80
2022/07/16 00:12:09;;;;;;;8.18;5.50;;;;;;;10.52;100.00;93564.31;2104717;28;20028;-80
2022/07/16 00:13:10;;;;;;;7.55;5.28;;;;;;;10.65;100.00;93565.25;2096860;28;20031;-79
2022/07/16 00:14:11;;;;;;;7.03;5.07;;;;;;;10.58;100.00;93565.38;2105882;28;20051;-79
2022/07/16 00:15:12;;;;;;;10.20;5.40;;;;;;;10.60;100.00;93563.06;2114312;28;20031;-80
2022/07/16 00:16:14;;;;;;;10.07;6.00;;;;;;;10.73;100.00;93561.34;2114298;27;20024;-80
2022/07/16 00:17:15;;;;;;;8.85;6.03;;;;;;;10.70;100.00;93564.81;2110615;27;20027;-80
2022/07/16 00:19:36;;;;;;;8.25;5.82;;;;;;;10.68;100.00;93558.38;2116949;27;20069;-80
2022/07/16 00:20:36;;;;;;;7.82;5.07;;;;;;;10.65;100.00;93557.25;2111964;28;20071;-80
2022/07/16 00:21:37;;;;;;;10.93;6.15;;;;;;;10.65;100.00;93561.84;2106261;28;20469;-79
2022/07/16 00:22:38;;;;;;;10.98;5.75;;;;;;;10.51;100.00;93558.22;2101770;28;20055;-79
2022/07/16 00:23:39;;;;;;;6.40;5.38;;;;;;;10.48;100.00;93559.00;2090322;28;20039;-80
2022/07/16 00:24:41;;;;;;;7.70;5.28;;;;;;;10.54;100.00;93562.00;2096214;28;20115;-80
2022/07/16 00:25:42;;;;;;;8.27;5.55;;;;;;;10.47;100.00;93559.44;2098290;28;20381;-80
2022/07/16 00:26:43;;;;;;;8.85;4.82;;;;;;;10.54;100.00;93556.66;2105578;28;20024;-80
2022/07/16 00:27:44;;;;;;;6.38;5.10;;;;;;;10.57;100.00;93561.19;2097590;28;20443;-80
2022/07/16 00:28:45;;;;;;;5.90;5.15;;;;;;;10.45;100.00;93556.41;2100445;28;20032;-80
2022/07/16 00:29:48;;;;;;;6.07;4.70;;;;;;;10.41;100.00;93555.72;2113053;27;20430;-79
2022/07/16 00:30:49;;;;;;;7.18;5.20;;;;;;;10.43;100.00;93556.03;2122545;27;20039;-80
2022/07/16 00:31:51;;;;;;;7.07;5.25;;;;;;;10.40;100.00;93548.81;2117444;27;20028;-79
2022/07/16 00:32:52;;;;;;;5.95;5.10;;;;;;;10.22;100.00;93554.38;2111643;28;20068;-79
2022/07/16 00:33:53;;;;;;;5.43;4.90;;;;;;;10.28;100.00;93556.25;2098341;28;20051;-79
2022/07/16 00:34:53;;;;;;;8.38;5.03;;;;;;;10.32;100.00;93554.28;2111511;27;20019;-79
2022/07/16 00:35:54;;;;;;;9.57;5.30;;;;;;;10.43;100.00;93550.69;2114301;28;20024;-79
2022/07/16 00:36:55;;;;;;;6.18;5.00;;;;;;;10.30;100.00;93550.50;2112575;28;20020;-79
2022/07/16 00:37:56;;;;;;;7.03;5.13;;;;;;;10.23;100.00;93547.91;2105381;28;20035;-79
2022/07/16 00:38:57;;;;;;;7.68;5.18;;;;;;;10.21;100.00;93550.97;2105917;28;20016;-79
2022/07/16 00:39:58;;;;;;;7.30;5.20;;;;;;;10.21;100.00;93550.97;2105379;28;20091;-79
2022/07/16 00:40:59;;;;;;;6.18;5.07;;;;;;;10.20;100.00;93546.78;2105959;28;20055;-79
2022/07/16 00:42:00;;;;;;;5.82;5.13;;;;;;;10.17;100.00;93552.16;2109457;28;20115;-79
2022/07/16 00:43:01;;;;;;;8.23;5.80;;;;;;;10.10;100.00;93545.03;2091454;28;20036;-79
2022/07/16 00:44:05;;;;;;;8.73;5.00;;;;;;;10.15;100.00;93546.50;2103868;28;20123;-79
2022/07/16 00:45:07;;;;;;;8.05;6.38;;;;;;;10.14;100.00;93547.63;2105947;28;20024;-79
2022/07/16 00:46:08;;;;;;;6.85;5.60;;;;;;;10.10;100.00;93547.69;2105381;27;20496;-79
2022/07/16 00:47:09;;;;;;;9.95;5.50;;;;;;;10.06;100.00;93550.41;2100703;28;20111;-79
2022/07/16 00:48:11;;;;;;;7.55;5.95;;;;;;;10.01;100.00;93547.44;2110805;28;20028;-79
2022/07/16 00:49:13;;;;;;;6.35;5.72;;;;;;;9.89;100.00;93548.72;2104896;28;20077;-79
2022/07/16 00:50:15;;;;;;;8.48;5.95;;;;;;;9.99;100.00;93555.06;2106113;28;20016;-79
2022/07/16 00:51:16;;;;;;;9.75;5.38;;;;;;;10.02;100.00;93544.34;2114051;28;20027;-79
2022/07/16 00:52:17;;;;;;;6.30;5.70;;;;;;;9.90;100.00;93552.88;2114184;27;20042;-79
2022/07/16 00:53:18;;;;;;;8.27;6.03;;;;;;;10.02;100.00;93546.25;2122864;27;20050;-80
2022/07/16 00:54:20;;;;;;;8.32;5.65;;;;;;;10.02;100.00;93548.94;2112817;28;20046;-79
2022/07/16 00:55:21;;;;;;;6.60;5.40;;;;;;;10.11;100.00;93549.19;2094107;28;20025;-79
2022/07/16 00:56:23;;;;;;;6.10;5.50;;;;;;;10.12;100.00;93549.94;2092167;28;20084;-80
2022/07/16 00:57:23;;;;;;;9.45;5.78;;;;;;;10.06;100.00;93541.63;2091465;28;20040;-79
2022/07/16 00:58:24;;;;;;;11.20;5.88;;;;;;;9.92;100.00;93545.25;2105700;28;20070;-80
2022/07/16 00:59:25;;;;;;;7.18;5.82;;;;;;;9.83;100.00;93551.06;2095604;28;20146;-79
2022/07/16 01:00:27;;;;;;;9.35;5.72;;;;;;;9.81;100.00;93548.03;2097138;28;20494;-80
2022/07/16 01:01:28;;;;;;;9.90;5.78;;;;;;;9.85;100.00;93548.00;2103402;28;20099;-80
2022/07/16 01:02:29;;;;;;;8.43;5.50;;;;;;;9.83;100.00;93548.41;2109012;28;20028;-79
2022/07/16 01:03:30;;;;;;;6.65;5.47;;;;;;;9.65;100.00;93545.16;2103533;28;20101;-79
2022/07/16 01:04:31;;;;;;;6.43;5.60;;;;;;;9.76;100.00;93548.47;2103424;28;20023;-79
2022/07/16 01:05:33;;;;;;;7.25;5.68;;;;;;;9.88;100.00;93551.75;2103485;28;20027;-80
2022/07/16 01:06:34;;;;;;;6.50;5.38;;;;;;;9.91;100.00;93545.63;2110220;28;20024;-79
2022/07/16 01:07:36;;;;;;;6.82;5.20;;;;;;;9.87;100.00;93544.91;2097303;28;20542;-79
2022/07/16 01:08:41;;;;;;;9.35;5.90;;;;;;;9.78;100.00;93550.75;2097502;28;20132;-79
2022/07/16 01:09:43;;;;;;;7.00;4.88;;;;;;;9.60;100.00;93548.28;2106549;28;20085;-80
2022/07/16 01:10:44;;;;;;;9.02;5.43;;;;;;;9.62;100.00;93545.97;2111835;28;20110;-80
2022/07/16 01:11:47;;;;;;;7.57;5.50;;;;;;;9.70;100.00;93549.31;2114225;28;20035;-80
2022/07/16 01:12:49;;;;;;;6.93;5.30;;;;;;;9.54;100.00;93547.19;2112058;28;20011;-80
2022/07/16 01:13:50;;;;;;;6.30;5.50;;;;;;;9.54;100.00;93553.28;2113347;27;20036;-80
2022/07/16 01:14:51;;;;;;;5.90;5.30;;;;;;;9.71;100.00;93548.16;2112686;28;20039;-80
2022/07/16 01:15:52;;;;;;;7.07;5.45;;;;;;;9.79;100.00;93547.69;2097073;28;20449;-79
2022/07/16 01:16:53;;;;;;;11.23;5.72;;;;;;;9.81;100.00;93542.69;2096911;28;20089;-79
2022/07/16 01:17:54;;;;;;;6.10;5.50;;;;;;;9.71;100.00;93554.25;2105107;28;20543;-80
2022/07/16 01:18:55;;;;;;;7.07;5.75;;;;;;;9.64;100.00;93545.56;2105664;28;20028;-79
2022/07/16 01:19:57;;;;;;;9.13;5.65;;;;;;;9.47;100.00;93550.69;2117595;27;20365;-80
2022/07/16 01:20:58;;;;;;;11.77;5.68;;;;;;;9.52;100.00;93547.59;2103539;28;20035;-80
2022/07/16 01:21:59;;;;;;;7.65;5.60;;;;;;;9.59;100.00;93544.84;2114131;27;20053;-80
2022/07/16 01:23:01;;;;;;;6.90;5.68;;;;;;;9.62;100.00;93545.97;2114044;27;20064;-80
2022/07/16 01:24:02;;;;;;;8.90;5.68;;;;;;;9.58;100.00;93543.34;2103052;28;20070;-80
2022/07/16 01:25:08;;;;;;;7.80;6.00;;;;;;;9.57;100.00;93549.09;2113368;28;20046;-79
2022/07/16 01:26:09;;;;;;;6.43;5.82;;;;;;;9.39;100.00;93537.81;2107535;28;20031;-79
2022/07/16 01:27:10;;;;;;;9.20;6.07;;;;;;;9.36;100.00;93542.06;2103520;28;20020;-80
2022/07/16 01:28:11;;;;;;;6.25;5.35;;;;;;;9.41;100.00;93538.19;2103135;28;20024;-79
2022/07/16 01:29:12;;;;;;;7.22;5.88;;;;;;;9.43;100.00;93539.28;2113612;28;20606;-79
2022/07/16 01:30:13;;;;;;;7.25;5.57;;;;;;;9.38;100.00;93534.41;2113062;28;20060;-79
2022/07/16 01:31:14;;;;;;;7.65;5.82;;;;;;;9.45;100.00;93538.91;2107303;28;20027;-79
2022/07/16 01:32:15;;;;;;;6.90;5.70;;;;;;;9.38;100.00;93545.06;2109310;28;20052;-79
2022/07/16 01:33:21;;;;;;;6.80;6.05;;;;;;;9.24;100.00;93537.22;2100370;28;20023;-79
2022/07/16 01:34:26;;;;;;;6.70;5.90;;;;;;;9.21;100.00;93543.34;2095896;28;20032;-79
2022/07/16 01:35:26;;;;;;;8.40;5.68;;;;;;;9.34;100.00;93536.34;2091822;28;20112;-79
2022/07/16 01:36:27;;;;;;;9.32;6.30;;;;;;;9.27;100.00;93544.44;2090944;28;20024;-80
2022/07/16 01:37:28;;;;;;;8.32;5.78;;;;;;;9.33;100.00;93543.59;2101099;28;20032;-79
2022/07/16 01:38:30;;;;;;;9.38;5.63;;;;;;;9.32;100.00;93541.34;2102483;28;20074;-79
2022/07/16 01:39:34;;;;;;;8.23;5.82;;;;;;;9.36;100.00;93542.06;2104445;28;20138;-79
2022/07/16 01:40:34;;;;;;;8.50;6.28;;;;;;;9.32;100.00;93539.41;2112107;28;20096;-79
2022/07/16 01:41:35;;;;;;;11.05;6.68;;;;;;;9.29;100.00;93539.44;2110538;28;20491;-79
2022/07/16 01:42:36;;;;;;;10.57;5.70;;;;;;;9.21;100.00;93541.41;2113349;27;20031;-79
2022/07/16 01:43:38;;;;;;;10.65;5.72;;;;;;;9.18;100.00;93541.47;2109340;28;20499;-80
2022/07/16 01:44:39;;;;;;;9.98;5.95;;;;;;;9.20;100.00;93544.50;2108036;28;20027;-80
2022/07/16 01:45:40;;;;;;;9.43;6.30;;;;;;;9.27;100.00;93544.44;2113237;28;20023;-80
2022/07/16 01:46:41;;;;;;;8.07;6.32;;;;;;;9.25;100.00;93544.81;2102075;28;20480;-79
2022/07/16 01:47:42;;;;;;;9.30;6.40;;;;;;;9.31;100.00;93542.50;2107779;28;20020;-80
2022/07/16 01:48:43;;;;;;;7.47;6.07;;;;;;;9.20;100.00;93536.50;2126617;27;20030;-79
2022/07/16 01:49:45;;;;;;;6.78;5.85;;;;;;;9.27;100.00;93539.09;2120060;27;20049;-80
2022/07/16 01:50:46;;;;;;;10.63;6.05;;;;;;;9.03;100.00;93543.50;2101208;28;20032;-80
2022/07/16 01:51:47;;;;;;;6.45;5.72;;;;;;;9.03;100.00;93538.16;2108672;28;20028;-80
2022/07/16 01:52:48;;;;;;;12.38;6.53;;;;;;;9.03;100.00;93541.59;2111811;28;20024;-79
2022/07/16 01:53:49;;;;;;;8.48;6.15;;;;;;;8.97;100.00;93535.19;2093371;28;20033;-80
2022/07/16 01:54:53;;;;;;;9.15;6.93;;;;;;;8.98;100.00;93536.69;2094827;28;20024;-80
2022/07/16 01:55:54;;;;;;;10.02;6.63;;;;;;;8.98;100.00;93533.28;2108130;28;20086;-79
2022/07/16 01:56:55;;;;;;;7.07;6.38;;;;;;;9.05;100.00;93527.88;2113235;28;20031;-79
2022/07/16 01:57:56;;;;;;;11.38;6.20;;;;;;;9.02;100.00;93537.41;2104456;28;20024;-79
2022/07/16 01:58:57;;;;;;;6.80;6.07;;;;;;;8.96;100.00;93525.69;2099765;28;20113;-79
2022/07/16 01:59:58;;;;;;;6.97;6.22;;;;;;;9.03;100.00;93530.16;2099890;28;20012;-79
2022/07/16 02:00:59;;;;;;;10.05;6.05;;;;;;;8.95;100.00;93528.72;2094012;28;20028;-80
2022/07/16 02:01:59;;;;;;;9.80;6.35;;;;;;;8.95;100.00;93536.72;2096806;28;20047;-79
2022/07/16 02:03:01;;;;;;;8.07;6.97;;;;;;;8.89;100.00;93536.38;2105093;28;20057;-80
2022/07/16 02:04:02;;;;;;;8.70;6.43;;;;;;;8.89;100.00;93530.31;2097567;28;20541;-79
2022/07/16 02:05:03;;;;;;;8.52;6.28;;;;;;;8.89;100.00;93533.72;2105046;28;20480;-79
2022/07/16 02:06:04;;;;;;;9.27;6.55;;;;;;;8.98;100.00;93526.03;2121430;27;20023;-79
2022/07/16 02:07:06;;;;;;;10.30;6.30;;;;;;;9.05;100.00;93525.97;2105026;28;20028;-79
2022/07/16 02:08:07;;;;;;;10.27;6.07;;;;;;;9.02;100.00;93524.09;2100753;28;20036;-79
2022/07/16 02:09:08;;;;;;;8.55;6.53;;;;;;;8.97;100.00;93527.19;2108430;28;20020;-79
2022/07/16 02:10:10;;;;;;;10.77;6.53;;;;;;;8.85;100.00;93524.25;2100076;28;20024;-80
2022/07/16 02:11:11;;;;;;;8.52;6.55;;;;;;;8.88;100.00;93526.13;2093920;28;20099;-79
2022/07/16 02:12:11;;;;;;;9.40;5.93;;;;;;;8.77;100.00;93526.97;2112442;28;20020;-79
2022/07/16 02:14:21;;;;;;;;;;;;;;;8.71;100.00;93528.53;2141936;27;20623;-68
2022/07/16 02:15:22;;;;;;;7.47;5.72;;;;;;;8.72;100.00;93526.63;2139838;27;20338;-69
2022/07/16 02:16:23;;;;;;;9.30;6.35;;;;;;;8.69;100.00;93530.06;2140191;27;20490;-69
2022/07/16 02:17:25;;;;;;;8.85;6.32;;;;;;;8.63;100.00;93531.66;2140696;27;20023;-68
2022/07/16 02:18:26;;;;;;;7.97;6.13;;;;;;;8.57;100.00;93526.75;2140895;27;20042;-71
2022/07/16 02:19:27;;;;;;;11.23;6.50;;;;;;;8.55;100.00;93529.03;2141006;27;20416;-72
2022/07/16 02:20:28;;;;;;;9.18;6.40;;;;;;;8.56;100.00;93533.22;2140071;27;20022;-69
2022/07/16 02:21:30;;;;;;;9.05;6.28;;;;;;;8.63;100.00;93534.31;2141234;27;20114;-69
2022/07/16 02:22:31;;;;;;;9.10;6.50;;;;;;;8.62;100.00;93535.47;2140120;27;20025;-72
2022/07/16 02:23:32;;;;;;;8.23;6.03;;;;;;;8.64;100.00;93535.81;2141408;27;20498;-71
2022/07/16 02:24:33;;;;;;;7.40;6.07;;;;;;;8.57;100.00;93536.66;2139065;27;20030;-72
2022/07/16 02:25:34;;;;;;;10.23;6.43;;;;;;;8.56;100.00;93541.22;2142482;27;20426;-72
2022/07/16 02:26:35;;;;;;;10.15;6.45;;;;;;;8.66;100.00;93536.22;2140777;27;20041;-69
2022/07/16 02:27:37;;;;;;;6.80;6.18;;;;;;;8.70;100.00;93532.38;2140785;27;20468;-72
2022/07/16 02:28:37;;;;;;;9.65;6.03;;;;;;;8.56;100.00;93533.22;2141728;27;20041;-73
2022/07/16 02:29:39;;;;;;;10.20;6.35;;;;;;;8.57;100.00;93539.31;2140657;27;20900;-72
2022/07/16 02:30:43;;;;;;;7.75;6.72;;;;;;;8.55;100.00;93539.69;2140828;27;20479;-71
2022/07/16 02:31:45;;;;;;;7.72;5.70;;;;;;;8.54;100.00;93542.75;2142160;27;20026;-71
2022/07/16 02:32:45;;;;;;;7.55;6.55;;;;;;;8.45;100.00;93539.78;2140657;27;20083;-71
2022/07/16 02:33:47;;;;;;;8.13;6.40;;;;;;;8.39;100.00;93534.13;2140829;27;20075;-71
2022/07/16 02:34:51;;;;;;;8.48;6.45;;;;;;;8.31;100.00;93545.94;2140720;27;20162;-70
2022/07/16 02:35:52;;;;;;;6.75;6.03;;;;;;;8.19;100.00;93539.16;2139455;27;20029;-72
2022/07/16 02:36:53;;;;;;;15.52;6.60;;;;;;;8.16;100.00;93533.84;2140299;27;20066;-71
2022/07/16 02:37:54;;;;;;;7.43;6.22;;;;;;;8.22;100.00;93543.69;2138397;27;20122;-68
2022/07/16 02:38:55;;;;;;;11.93;6.63;;;;;;;8.47;100.00;93535.59;2140532;27;20561;-68
2022/07/16 02:39:56;;;;;;;10.60;6.95;;;;;;;8.47;100.00;93540.13;2141309;27;20058;-68
2022/07/16 02:40:57;;;;;;;8.05;6.55;;;;;;;8.53;100.00;93530.59;2138430;27;20027;-71
2022/07/16 02:41:58;;;;;;;8.75;6.20;;;;;;;8.57;100.00;93534.75;2140396;27;20033;-70
2022/07/16 02:43:02;;;;;;;8.93;6.18;;;;;;;8.53;100.00;93534.00;2139367;27;20553;-71
2022/07/16 02:44:04;;;;;;;7.38;5.90;;;;;;;8.56;100.00;93532.47;2140070;27;20037;-70
2022/07/16 02:45:07;;;;;;;6.57;5.85;;;;;;;8.47;100.00;93538.25;2131190;27;20022;-72
2022/07/16 02:46:08;;;;;;;12.27;6.93;;;;;;;8.42;100.00;93535.22;2130917;27;20103;-71
2022/07/16 02:47:09;;;;;;;8.40;6.68;;;;;;;8.49;100.00;93540.50;2139389;27;20086;-70
2022/07/16 02:48:10;;;;;;;10.05;6.68;;;;;;;8.37;100.00;93538.31;2141943;27;20471;-72
2022/07/16 02:49:11;;;;;;;8.88;6.72;;;;;;;8.26;100.00;93533.78;2141972;27;20073;-71
2022/07/16 02:50:15;;;;;;;8.75;6.18;;;;;;;8.22;100.00;93538.38;2139447;27;20078;-71
2022/07/16 02:51:17;;;;;;;10.68;6.40;;;;;;;8.33;100.00;93536.38;2140870;27;20037;-71
2022/07/16 02:52:19;;;;;;;11.10;6.70;;;;;;;8.25;100.00;93531.50;2141499;27;20052;-74
2022/07/16 02:53:20;;;;;;;9.05;6.35;;;;;;;8.22;100.00;93540.28;2130407;27;20041;-73
2022/07/16 02:54:21;;;;;;;8.10;6.07;;;;;;;8.18;100.00;93539.53;2131404;27;20034;-73
2022/07/16 02:55:22;;;;;;;7.43;6.15;;;;;;;8.15;100.00;93535.75;2140020;27;20022;-70
2022/07/16 02:56:23;;;;;;;7.15;6.43;;;;;;;8.05;100.00;93537.31;2140279;27;20030;-72
2022/07/16 02:57:24;;;;;;;8.57;6.43;;;;;;;8.04;100.00;93533.16;2140212;27;20031;-72
2022/07/16 02:58:25;;;;;;;9.77;6.70;;;;;;;8.11;100.00;93531.59;2140953;27;20547;-72
2022/07/16 02:59:29;;;;;;;11.52;6.57;;;;;;;8.07;100.00;93521.72;2140778;27;20510;-72
2022/07/16 03:00:30;;;;;;;11.57;6.53;;;;;;;7.98;100.00;93533.94;2139846;27;20040;-72
2022/07/16 03:01:31;;;;;;;8.80;6.30;;;;;;;8.10;100.00;93538.81;2139305;27;20050;-70
2022/07/16 03:02:33;;;;;;;9.52;6.88;;;;;;;8.00;100.00;93535.06;2140223;27;20040;-70
2022/07/16 03:03:34;;;;;;;9.20;6.45;;;;;;;8.10;100.00;93532.75;2139837;27;20544;-71
2022/07/16 03:04:35;;;;;;;10.65;6.47;;;;;;;8.13;100.00;93537.28;2141480;27;20026;-71
2022/07/16 03:05:36;;;;;;;9.77;6.90;;;;;;;8.10;100.00;93538.81;2140042;27;20073;-71
2022/07/16 03:06:37;;;;;;;7.20;5.95;;;;;;;8.04;100.00;93535.81;2140496;27;20030;-71
2022/07/16 03:07:41;;;;;;;8.52;6.22;;;;;;;8.09;100.00;93539.97;2139933;27;20037;-71
2022/07/16 03:08:41;;;;;;;11.90;6.82;;;;;;;8.11;100.00;93535.00;2142228;27;20042;-71
2022/07/16 03:09:42;;;;;;;7.80;6.20;;;;;;;7.95;100.00;93540.81;2140659;27;20026;-70
2022/07/16 03:10:44;;;;;;;10.73;6.65;;;;;;;7.97;100.00;93535.84;2130533;27;20034;-71
2022/07/16 03:11:45;;;;;;;16.50;6.70;;;;;;;8.06;100.00;93535.41;2131832;27;20669;-71
2022/07/16 03:12:46;;;;;;;7.32;6.53;;;;;;;8.05;100.00;93534.66;2140610;27;20033;-71
2022/07/16 03:13:47;;;;;;;8.32;6.18;;;;;;;8.10;100.00;93540.72;2139164;27;20077;-70
2022/07/16 03:14:48;;;;;;;8.15;6.28;;;;;;;8.04;100.00;93540.38;2139982;27;20030;-72
2022/07/16 03:15:49;;;;;;;11.48;5.55;;;;;;;7.92;100.00;93536.25;2139500;27;20083;-71
2022/07/16 03:16:50;;;;;;;8.30;6.10;;;;;;;7.98;100.00;93542.66;2140515;27;20481;-73
2022/07/16 03:17:51;;;;;;;6.68;5.97;;;;;;;8.01;100.00;93541.16;2131263;27;20107;-71
2022/07/16 03:18:52;;;;;;;12.23;7.03;;;;;;;7.94;100.00;93539.28;2132352;27;20026;-72
2022/07/16 03:19:53;;;;;;;9.20;5.95;;;;;;;7.94;100.00;93544.59;2140780;27;20065;-71
2022/07/16 03:20:54;;;;;;;8.95;6.10;;;;;;;7.92;100.00;93548.81;2138145;27;20030;-71
2022/07/16 03:21:55;;;;;;;10.93;6.72;;;;;;;7.82;100.00;93543.16;2140864;27;20034;-70
2022/07/16 03:22:55;;;;;;;8.95;6.10;;;;;;;7.84;100.00;93537.44;2140408;27;20498;-71
2022/07/16 03:23:56;;;;;;;7.43;6.05;;;;;;;7.88;100.00;93546.16;2140192;27;20463;-70
2022/07/16 03:24:57;;;;;;;7.47;6.68;;;;;;;7.85;100.00;93541.59;2139757;27;20062;-70
2022/07/16 03:25:58;;;;;;;7.50;5.90;;;;;;;7.84;100.00;93548.06;2133637;27;20057;-70
2022/07/16 03:26:59;;;;;;;8.45;6.00;;;;;;;7.82;100.00;93542.38;2135090;27;20030;-70
2022/07/16 03:28:00;;;;;;;6.78;6.07;;;;;;;7.81;100.00;93549.63;2132663;27;20455;-70
2022/07/16 03:29:01;;;;;;;9.05;5.70;;;;;;;7.71;100.00;93542.41;2135282;27;20026;-70
2022/07/16 03:30:04;;;;;;;8.80;6.00;;;;;;;7.81;100.00;93554.16;2136483;27;20371;-71
2022/07/16 03:31:05;;;;;;;7.00;6.30;;;;;;;7.68;100.00;93550.41;2124086;27;20122;-70
2022/07/16 03:32:06;;;;;;;10.85;7.03;;;;;;;7.67;100.00;93547.00;2125306;27;20084;-72
2022/07/16 03:33:07;;;;;;;8.98;6.35;;;;;;;7.71;100.00;93553.06;2134796;27;20026;-70
2022/07/16 03:34:08;;;;;;;9.38;5.93;;;;;;;7.65;100.00;93551.97;2133250;27;20045;-70
2022/07/16 03:35:11;;;;;;;11.65;6.18;;;;;;;7.65;100.00;93551.19;2135497;27;20321;-71
2022/07/16 03:36:15;;;;;;;5.95;5.38;;;;;;;7.67;100.00;93556.88;2134512;27;20070;-72
2022/07/16 03:37:16;;;;;;;6.20;5.57;;;;;;;7.69;100.00;93557.28;2133461;27;20121;-71
2022/07/16 03:39:37;;;;;;;6.68;5.28;;;;;;;7.70;100.00;93553.47;2133777;27;20070;-70
2022/07/16 03:40:38;;;;;;;8.07;6.20;;;;;;;7.79;100.00;93551.91;2134308;27;20031;-71
2022/07/16 03:41:39;;;;;;;8.90;5.53;;;;;;;7.78;100.00;93555.72;2133130;27;20034;-71
2022/07/16 03:42:40;;;;;;;6.72;6.03;;;;;;;7.82;100.00;93561.03;2135207;27;20023;-70
2022/07/16 03:43:41;;;;;;;9.13;5.75;;;;;;;7.81;100.00;93560.25;2134460;27;20034;-71
2022/07/16 03:44:42;;;;;;;6.22;5.50;;;;;;;7.88;100.00;93554.13;2132639;27;20026;-71
2022/07/16 03:45:43;;;;;;;7.85;5.80;;;;;;;7.84;100.00;93561.38;2134096;27;20053;-71
2022/07/16 03:46:44;;;;;;;7.45;5.45;;;;;;;7.84;100.00;93556.06;2134551;27;20022;-71
2022/07/16 03:47:45;;;;;;;6.97;5.75;;;;;;;7.93;100.00;93558.31;2134850;27;20050;-71
2022/07/16 03:48:46;;;;;;;10.25;5.97;;;;;;;7.85;100.00;93562.13;2134468;27;20058;-71
2022/07/16 03:49:47;;;;;;;6.82;5.88;;;;;;;7.74;100.00;93554.97;2133415;27;20041;-71
2022/07/16 03:50:48;;;;;;;7.60;6.05;;;;;;;7.69;100.00;93555.38;2133906;27;20026;-71
2022/07/16 03:51:49;;;;;;;8.27;5.75;;;;;;;7.66;100.00;93561.44;2133305;27;20427;-72
2022/07/16 03:52:50;;;;;;;6.43;5.82;;;;;;;7.71;100.00;93557.63;2134633;27;20036;-70
2022/07/16 03:53:51;;;;;;;7.50;6.57;;;;;;;7.80;100.00;93557.97;2134048;27;20026;-71
2022/07/16 03:54:52;;;;;;;6.78;5.72;;;;;;;7.88;100.00;93556.03;2133034;27;20164;-71
2022/07/16 03:55:53;;;;;;;9.15;5.93;;;;;;;7.87;100.00;93557.94;2135927;27;20876;-72
2022/07/16 03:56:54;;;;;;;5.95;5.45;;;;;;;7.91;100.00;93556.03;2133846;27;20026;-71
2022/07/16 03:57:55;;;;;;;7.47;5.47;;;;;;;7.83;100.00;93557.22;2134615;27;20032;-71
2022/07/16 03:58:56;;;;;;;7.78;5.72;;;;;;;7.77;100.00;93564.06;2134952;27;20022;-71
2022/07/16 03:59:57;;;;;;;8.80;6.05;;;;;;;7.79;100.00;93559.13;2134138;27;20398;-71
2022/07/16 04:00:58;;;;;;;7.65;6.05;;;;;;;7.76;100.00;93560.66;2134367;27;20039;-72
2022/07/16 04:01:59;;;;;;;9.38;5.70;;;;;;;7.77;100.00;93561.41;2124009;27;20615;-72
2022/07/16 04:03:00;;;;;;;7.63;5.43;;;;;;;7.73;100.00;93558.03;2125129;27;20738;-71
2022/07/16 04:04:01;;;;;;;7.82;5.97;;;;;;;7.78;100.00;93557.63;2125136;27;20055;-71
2022/07/16 04:05:05;;;;;;;7.60;5.97;;;;;;;7.66;100.00;93560.69;2117014;27;20027;-72
2022/07/16 04:06:06;;;;;;;7.10;5.40;;;;;;;7.61;100.00;93551.22;2125276;27;20073;-71
2022/07/16 04:07:07;;;;;;;6.47;5.28;;;;;;;7.70;100.00;93562.19;2132716;27;20042;-71
2022/07/16 04:08:08;;;;;;;7.93;5.55;;;;;;;7.80;100.00;93564.06;2133579;27;20937;-71
2022/07/16 04:09:09;;;;;;;8.27;5.60;;;;;;;7.81;100.00;93556.81;2132516;27;20030;-71
2022/07/16 04:10:10;;;;;;;5.85;5.20;;;;;;;7.90;100.00;93556.41;2133707;27;20350;-71
2022/07/16 04:11:11;;;;;;;5.95;4.80;;;;;;;7.96;100.00;93560.94;2133279;27;20026;-71
2022/07/16 04:12:12;;;;;;;5.88;5.32;;;;;;;7.87;100.00;93563.28;2132575;27;20379;-71
2022/07/16 04:13:13;;;;;;;6.65;5.35;;;;;;;7.91;100.00;93556.03;2133990;27;20030;-71
2022/07/16 04:14:14;;;;;;;8.00;5.75;;;;;;;7.94;100.00;93565.13;2131982;27;20042;-71
2022/07/16 04:15:15;;;;;;;8.00;5.97;;;;;;;7.95;100.00;93567.44;2134287;27;20041;-71
2022/07/16 04:16:16;;;;;;;8.13;5.28;;;;;;;7.75;100.00;93563.69;2133947;27;20030;-71
2022/07/16 04:17:17;;;;;;;6.30;5.70;;;;;;;7.80;100.00;93566.72;2134299;27;20031;-71
2022/07/16 04:18:20;;;;;;;7.82;5.68;;;;;;;7.80;100.00;93564.06;2132460;27;20037;-71
2022/07/16 04:19:21;;;;;;;7.10;5.13;;;;;;;7.86;100.00;93566.31;2134473;27;20460;-71
2022/07/16 04:20:22;;;;;;;6.90;5.32;;;;;;;7.82;100.00;93571.66;2133968;27;20026;-72
2022/07/16 04:21:23;;;;;;;7.80;6.15;;;;;;;7.80;100.00;93572.03;2134446;27;20472;-71
2022/07/16 04:22:24;;;;;;;7.88;5.50;;;;;;;7.91;100.00;93574.66;2132478;27;20461;-71
2022/07/16 04:23:25;;;;;;;6.72;5.93;;;;;;;8.01;100.00;93568.53;2133781;27;20527;-70
2022/07/16 04:24:26;;;;;;;6.57;5.60;;;;;;;8.10;100.00;93572.69;2125462;27;20084;-70
2022/07/16 04:25:28;;;;;;;5.90;5.40;;;;;;;8.10;100.00;93570.00;2124737;27;20108;-71
2022/07/16 04:26:29;;;;;;;6.40;5.30;;;;;;;8.17;100.00;93572.66;2133073;27;20687;-69
2022/07/16 04:27:30;;;;;;;11.32;5.80;;;;;;;8.20;100.00;93572.59;2133706;27;20034;-70
2022/07/16 04:28:31;;;;;;;6.57;5.00;;;;;;;8.21;100.00;93574.16;2133544;27;20026;-71
2022/07/16 04:29:36;;;;;;;6.28;5.60;;;;;;;8.23;100.00;93576.41;2135898;27;20029;-71
2022/07/16 04:30:37;;;;;;;8.02;5.13;;;;;;;8.24;100.00;93577.91;2132789;27;20476;-73
2022/07/16 04:31:38;;;;;;;7.47;5.68;;;;;;;8.22;100.00;93577.56;2133703;27;20287;-71
2022/07/16 04:32:41;;;;;;;10.20;5.75;;;;;;;8.21;100.00;93570.69;2134293;27;20034;-70
2022/07/16 04:33:45;;;;;;;6.68;5.28;;;;;;;8.28;100.00;93578.66;2133289;27;20029;-70
2022/07/16 04:34:46;;;;;;;6.63;5.90;;;;;;;8.26;100.00;93573.72;2133916;27;20034;-71
2022/07/16 04:35:48;;;;;;;9.60;5.35;;;;;;;8.29;100.00;93580.16;2124675;27;20418;-71
2022/07/16 04:36:52;;;;;;;6.53;5.45;;;;;;;8.32;100.00;93574.84;2124329;27;20886;-70
2022/07/16 04:37:53;;;;;;;5.38;4.88;;;;;;;8.39;100.00;93581.31;2131186;27;20030;-71
2022/07/16 04:38:54;;;;;;;9.02;5.22;;;;;;;8.43;100.00;93582.81;2132912;27;20086;-70
2022/07/16 04:39:55;;;;;;;6.50;4.85;;;;;;;8.47;100.00;93585.41;2134106;27;20058;-71
2022/07/16 04:40:56;;;;;;;6.10;5.30;;;;;;;8.51;100.00;93580.81;2133846;27;20062;-71
2022/07/16 04:41:56;;;;;;;11.98;5.78;;;;;;;8.52;100.00;93577.78;2134162;27;20026;-70
2022/07/16 04:42:57;;;;;;;7.15;5.22;;;;;;;8.53;100.00;93583.88;2132324;27;20527;-70
2022/07/16 04:43:58;;;;;;;8.10;4.90;;;;;;;8.56;100.00;93583.09;2134185;27;20038;-70
2022/07/16 04:45:00;;;;;;;6.28;5.45;;;;;;;8.57;100.00;93582.69;2132548;27;20027;-70
2022/07/16 04:46:01;;;;;;;7.45;5.70;;;;;;;8.60;100.00;93583.06;2133532;27;20078;-70
2022/07/16 04:47:02;;;;;;;6.30;5.70;;;;;;;8.62;100.00;93578.88;2134341;27;20027;-71
2022/07/16 04:48:03;;;;;;;6.30;4.97;;;;;;;8.69;100.00;93586.03;2132599;27;20026;-71
2022/07/16 04:49:05;;;;;;;11.30;5.40;;;;;;;8.70;100.00;93582.25;2132151;27;20482;-71
2022/07/16 04:50:08;;;;;;;6.82;4.90;;;;;;;8.74;100.00;93581.06;2133584;27;20134;-70
2022/07/16 04:51:09;;;;;;;6.93;5.20;;;;;;;8.76;100.00;93584.09;2131665;27;20088;-71
2022/07/16 04:52:10;;;;;;;7.25;5.38;;;;;;;8.80;100.00;93582.16;2134075;27;20455;-70
2022/07/16 04:53:10;;;;;;;7.10;5.03;;;;;;;8.81;100.00;93577.59;2132209;27;20074;-70